KPSC/PSC METAR and TAF weather

Enter ICAO airport designator
Station Type Date Time Source
KPSC METAR 2021/05/14 06:53 UTC NOAA

KPSC 140653Z AUTO 03005KT 10SM CLR 14/10 A3001 RMK AO2 SLP160 T01440100


Station Type Date Time Source
KPSC Decoded METAR 2021/05/14 06:53 UTC NOAA

TRI-CITIES AIRPORT, WA, United States (KPSC) 46-16N 119-07W 121M
May 14, 2021 - 02:53 AM EDT / 2021.05.14 0653 UTC
Wind: from the NNE (030 degrees) at 6 MPH (5 KT):0
Visibility: 10 mile(s):0
Sky conditions: clear
Temperature: 57.9 F (14.4 C)
Dew Point: 50.0 F (10.0 C)
Relative Humidity: 74%
Pressure (altimeter): 30.01 in. Hg (1016 hPa)
ob: KPSC 140653Z AUTO 03005KT 10SM CLR 14/10 A3001 RMK AO2 SLP160 T01440100
cycle: 7

Station Type Date Time Source
KPSC TAF 2021/05/14 06:27 UTC NOAA

TAF KPSC 140524Z 1406/1506 01002KT P6SM BKN250
FM141700 36005KT P6SM FEW120 BKN250
FM150300 VRB03KT P6SM SCT250

Example: see airport list